createdAt,value
2023-05-17T00:00:01.467Z,8.90
2023-05-17T00:02:30.811Z,8.90
2023-05-17T00:04:59.166Z,8.90
2023-05-17T00:07:27.198Z,8.80
2023-05-17T00:09:55.116Z,8.80
2023-05-17T00:12:23.072Z,8.80
2023-05-17T00:14:50.998Z,8.80
2023-05-17T00:17:18.922Z,8.80
2023-05-17T00:19:48.290Z,8.80
2023-05-17T00:22:16.308Z,8.80
2023-05-17T00:24:44.215Z,8.80
2023-05-17T00:27:12.120Z,8.80
2023-05-17T00:29:40.013Z,8.70
2023-05-17T00:32:08.330Z,8.70
2023-05-17T00:34:36.251Z,8.70
2023-05-17T00:37:05.965Z,8.70
2023-05-17T00:39:33.880Z,8.70
2023-05-17T00:42:02.042Z,8.70
2023-05-17T00:44:29.906Z,8.70
2023-05-17T00:46:59.708Z,8.70
2023-05-17T00:49:27.804Z,8.70
2023-05-17T00:51:56.200Z,8.60
2023-05-17T00:54:26.711Z,8.60
2023-05-17T00:56:57.014Z,8.60
2023-05-17T00:59:25.524Z,8.60
2023-05-17T01:01:53.514Z,8.60
2023-05-17T01:04:21.857Z,8.60
2023-05-17T01:06:50.257Z,8.60
2023-05-17T01:09:20.025Z,8.50
2023-05-17T01:11:56.229Z,8.50
2023-05-17T01:14:29.286Z,8.50
2023-05-17T01:16:58.633Z,8.40
2023-05-17T01:19:41.542Z,8.40
2023-05-17T01:22:16.381Z,8.40
2023-05-17T01:25:00.747Z,8.30
2023-05-17T01:27:31.132Z,8.30
2023-05-17T01:29:59.227Z,8.30
2023-05-17T01:32:27.545Z,8.20
2023-05-17T01:34:55.511Z,8.20
2023-05-17T01:37:23.470Z,8.20
2023-05-17T01:39:51.644Z,8.20
2023-05-17T01:42:22.972Z,8.20
2023-05-17T01:44:55.908Z,8.20
2023-05-17T01:47:28.555Z,8.10
2023-05-17T01:49:56.652Z,8.20
2023-05-17T01:52:28.254Z,8.10
2023-05-17T01:55:01.422Z,8.10
2023-05-17T01:57:30.513Z,8.10
2023-05-17T02:00:00.779Z,8.00
2023-05-17T02:02:28.747Z,8.10
2023-05-17T02:04:56.733Z,8.00
2023-05-17T02:07:24.609Z,8.00
2023-05-17T02:09:52.516Z,8.00
2023-05-17T02:12:20.379Z,8.00
2023-05-17T02:14:48.258Z,8.00
2023-05-17T02:17:17.674Z,8.00
2023-05-17T02:19:45.603Z,8.00
2023-05-17T02:22:13.517Z,8.00
2023-05-17T02:24:41.429Z,7.90
2023-05-17T02:27:09.300Z,8.00
2023-05-17T02:29:37.221Z,8.00
2023-05-17T02:32:06.209Z,7.90
2023-05-17T02:34:35.503Z,7.90
2023-05-17T02:37:03.491Z,7.90
2023-05-17T02:39:33.276Z,7.90
2023-05-17T02:42:01.152Z,7.90
2023-05-17T02:44:29.043Z,7.90
2023-05-17T02:46:57.014Z,7.90
2023-05-17T02:49:25.009Z,7.90
2023-05-17T02:51:54.288Z,7.90
2023-05-17T02:54:22.118Z,7.90
2023-05-17T02:56:50.221Z,7.90
2023-05-17T02:59:18.194Z,7.90
2023-05-17T03:01:49.738Z,7.90
2023-05-17T03:04:20.331Z,7.90
2023-05-17T03:06:48.270Z,7.90
2023-05-17T03:09:17.537Z,7.90
2023-05-17T03:11:46.049Z,7.90
2023-05-17T03:14:13.931Z,7.90
2023-05-17T03:16:41.826Z,7.90
2023-05-17T03:19:09.941Z,7.90
2023-05-17T03:21:37.986Z,7.90
2023-05-17T03:24:06.095Z,7.90
2023-05-17T03:26:35.418Z,7.90
2023-05-17T03:29:03.671Z,7.80
2023-05-17T03:31:31.625Z,7.80
2023-05-17T03:33:59.679Z,7.90
2023-05-17T03:36:27.688Z,7.80
2023-05-17T03:38:55.581Z,7.80
2023-05-17T03:41:23.598Z,7.80
2023-05-17T03:43:52.856Z,7.80
2023-05-17T03:46:20.740Z,7.80
2023-05-17T03:48:48.675Z,7.80
2023-05-17T03:51:16.839Z,7.80
2023-05-17T03:53:44.800Z,7.80
2023-05-17T03:56:12.753Z,7.80
2023-05-17T03:58:40.709Z,7.80
2023-05-17T04:01:10.035Z,7.80
2023-05-17T04:03:38.075Z,7.80
2023-05-17T04:06:07.390Z,7.70
2023-05-17T04:08:35.347Z,7.70
2023-05-17T04:11:10.165Z,7.70
2023-05-17T04:13:38.478Z,7.70
2023-05-17T04:16:06.863Z,7.60
2023-05-17T04:18:37.386Z,7.60
2023-05-17T04:21:05.844Z,7.60
2023-05-17T04:23:34.675Z,7.60
2023-05-17T04:26:03.225Z,7.60
2023-05-17T04:28:31.542Z,7.60
2023-05-17T04:30:59.526Z,7.50
2023-05-17T04:33:27.566Z,7.50
2023-05-17T04:35:57.653Z,7.60
2023-05-17T04:38:25.624Z,7.60
2023-05-17T04:40:53.582Z,7.60
2023-05-17T04:43:21.540Z,7.50
2023-05-17T04:45:49.494Z,7.50
2023-05-17T04:48:19.989Z,7.50
2023-05-17T04:50:48.132Z,7.50
2023-05-17T04:53:17.394Z,7.50
2023-05-17T04:55:46.002Z,7.40
2023-05-17T04:58:13.952Z,7.40
2023-05-17T05:00:41.832Z,7.40
2023-05-17T05:03:09.836Z,7.40
2023-05-17T05:05:37.763Z,7.30
2023-05-17T05:08:05.830Z,7.30
2023-05-17T05:10:35.169Z,7.30
2023-05-17T05:13:03.466Z,7.30
2023-05-17T05:15:32.840Z,7.30
2023-05-17T05:18:00.955Z,7.30
2023-05-17T05:20:28.888Z,7.20
2023-05-17T05:22:58.472Z,7.30
2023-05-17T05:25:26.730Z,7.30
2023-05-17T05:27:56.193Z,7.20
2023-05-17T05:30:24.169Z,7.30
2023-05-17T05:32:52.264Z,7.30
2023-05-17T05:35:20.451Z,7.30
2023-05-17T05:37:48.363Z,7.30
2023-05-17T05:40:16.457Z,7.30
2023-05-17T05:42:44.347Z,7.30
2023-05-17T05:45:13.778Z,7.30
2023-05-17T05:47:41.766Z,7.30
2023-05-17T05:50:10.407Z,7.30
2023-05-17T05:52:38.476Z,7.40
2023-05-17T05:55:06.864Z,7.40
2023-05-17T05:57:35.751Z,7.40
2023-05-17T06:00:04.826Z,7.40
2023-05-17T06:02:34.973Z,7.40
2023-05-17T06:05:03.806Z,7.40
2023-05-17T06:07:31.747Z,7.40
2023-05-17T06:09:59.648Z,7.40
2023-05-17T06:12:27.517Z,7.40
2023-05-17T06:14:55.394Z,7.40
2023-05-17T06:17:23.334Z,7.50
2023-05-17T06:19:52.941Z,7.50
2023-05-17T06:22:20.909Z,7.50
2023-05-17T06:24:48.902Z,7.50
2023-05-17T06:27:16.844Z,7.50
2023-05-17T06:29:44.847Z,7.50
2023-05-17T06:32:12.736Z,7.50
2023-05-17T06:34:40.974Z,7.50
2023-05-17T06:37:10.758Z,7.50
2023-05-17T06:39:38.681Z,7.60
2023-05-17T06:42:06.731Z,7.70
2023-05-17T06:44:34.665Z,7.70
2023-05-17T06:47:02.908Z,7.70
2023-05-17T06:49:30.834Z,7.80
2023-05-17T06:52:03.337Z,7.80
2023-05-17T06:54:32.782Z,7.70
2023-05-17T06:57:01.041Z,7.80
2023-05-17T06:59:29.234Z,7.80
2023-05-17T07:01:57.170Z,7.80
2023-05-17T07:04:25.180Z,7.80
2023-05-17T07:06:53.196Z,7.80
2023-05-17T07:09:21.254Z,7.90
2023-05-17T07:11:50.584Z,7.90
2023-05-17T07:14:18.584Z,7.90
2023-05-17T07:16:47.876Z,7.90
2023-05-17T07:19:16.000Z,8.00
2023-05-17T07:21:44.035Z,8.00
2023-05-17T07:24:11.927Z,8.00
2023-05-17T07:26:39.853Z,8.10
2023-05-17T07:29:09.203Z,8.10
2023-05-17T07:31:37.221Z,8.10
2023-05-17T07:34:05.699Z,8.10
2023-05-17T07:36:33.784Z,8.10
2023-05-17T07:39:04.113Z,8.00
2023-05-17T07:41:32.792Z,8.00
2023-05-17T07:44:00.741Z,8.10
2023-05-17T07:46:30.005Z,8.10
2023-05-17T07:48:58.938Z,8.20
2023-05-17T07:51:27.306Z,8.30
2023-05-17T07:53:55.192Z,8.30
2023-05-17T07:56:23.150Z,8.40
2023-05-17T07:58:51.197Z,8.40
2023-05-17T08:01:19.092Z,8.40
2023-05-17T08:03:48.896Z,8.50
2023-05-17T08:06:17.186Z,8.60
2023-05-17T08:08:45.698Z,8.70
2023-05-17T08:11:14.148Z,8.80
2023-05-17T08:13:42.216Z,8.90
2023-05-17T08:16:14.202Z,9.00
2023-05-17T08:18:44.154Z,9.10
2023-05-17T08:21:13.609Z,9.30
2023-05-17T08:23:41.751Z,9.40
2023-05-17T08:26:09.676Z,9.60
2023-05-17T08:28:37.564Z,9.80
2023-05-17T08:31:05.574Z,9.90
2023-05-17T08:33:33.690Z,10.00
2023-05-17T08:36:04.202Z,10.10
2023-05-17T08:38:34.360Z,10.20
2023-05-17T08:41:03.048Z,10.30
2023-05-17T08:43:31.967Z,10.40
2023-05-17T08:46:00.193Z,10.50
2023-05-17T08:48:31.376Z,10.60
2023-05-17T08:50:59.937Z,10.60
2023-05-17T08:53:28.226Z,10.60
2023-05-17T08:55:59.116Z,10.60
2023-05-17T08:58:32.350Z,10.70
2023-05-17T09:01:00.757Z,10.80
2023-05-17T09:03:30.509Z,10.90
2023-05-17T09:06:00.123Z,11.00
2023-05-17T09:08:30.081Z,11.10
2023-05-17T09:10:59.676Z,11.10
2023-05-17T09:13:27.786Z,11.20
2023-05-17T09:15:56.033Z,11.20
2023-05-17T09:18:30.561Z,11.30
2023-05-17T09:21:03.053Z,11.40
2023-05-17T09:23:32.974Z,11.50
2023-05-17T09:26:13.660Z,11.60
2023-05-17T09:28:42.341Z,11.60
2023-05-17T09:31:10.760Z,11.70
2023-05-17T09:33:43.996Z,11.80
2023-05-17T09:36:19.224Z,11.80
2023-05-17T09:38:54.484Z,11.80
2023-05-17T09:41:27.335Z,11.90
2023-05-17T09:43:58.581Z,11.90
2023-05-17T09:46:26.588Z,12.00
2023-05-17T09:48:55.523Z,12.10
2023-05-17T09:51:33.352Z,12.10
2023-05-17T09:54:01.376Z,12.20
2023-05-17T09:56:31.293Z,12.10
2023-05-17T09:59:00.801Z,12.20
2023-05-17T10:01:29.608Z,12.20
2023-05-17T10:04:00.543Z,12.20
2023-05-17T10:06:44.108Z,12.30
2023-05-17T10:09:15.761Z,12.30
2023-05-17T10:11:47.648Z,12.20
2023-05-17T10:14:18.644Z,12.20
2023-05-17T10:16:46.909Z,12.10
2023-05-17T10:19:15.270Z,12.20
2023-05-17T10:21:44.191Z,12.30
2023-05-17T10:24:12.515Z,12.40
2023-05-17T10:26:40.932Z,12.50
2023-05-17T10:29:11.089Z,12.60
2023-05-17T10:31:39.018Z,12.50
2023-05-17T10:34:07.536Z,12.50
2023-05-17T10:36:35.618Z,12.50
2023-05-17T10:39:03.630Z,12.40
2023-05-17T10:41:32.854Z,12.30
2023-05-17T10:44:02.767Z,12.20
2023-05-17T10:46:32.336Z,12.30
2023-05-17T10:49:01.973Z,12.50
2023-05-17T10:51:32.322Z,12.60
2023-05-17T10:54:10.282Z,12.60
2023-05-17T10:56:41.242Z,12.40
2023-05-17T10:59:16.132Z,12.30
2023-05-17T11:01:55.451Z,12.20
2023-05-17T11:04:25.616Z,12.20
2023-05-17T11:06:54.603Z,12.20
2023-05-17T11:09:23.730Z,12.20
2023-05-17T11:12:08.129Z,12.20
2023-05-17T11:14:49.005Z,12.30
2023-05-17T11:17:19.405Z,12.30
2023-05-17T11:19:51.645Z,12.50
2023-05-17T11:22:23.764Z,12.60
2023-05-17T11:24:52.668Z,12.50
2023-05-17T11:27:23.360Z,12.50
2023-05-17T11:29:51.368Z,12.50
2023-05-17T11:32:27.687Z,12.50
2023-05-17T11:34:55.867Z,12.60
2023-05-17T11:37:26.914Z,12.80
2023-05-17T11:40:05.725Z,13.00
2023-05-17T11:42:33.805Z,13.00
2023-05-17T11:45:02.342Z,13.00
2023-05-17T11:47:31.767Z,13.00
2023-05-17T11:50:01.825Z,13.00
2023-05-17T11:52:29.747Z,13.00
2023-05-17T11:54:58.242Z,13.00
2023-05-17T11:57:30.801Z,12.90
2023-05-17T12:00:02.581Z,12.80
2023-05-17T12:02:32.993Z,12.70
2023-05-17T12:05:01.174Z,12.70
2023-05-17T12:07:29.685Z,12.70
2023-05-17T12:09:57.625Z,12.80
2023-05-17T12:12:26.162Z,12.70
2023-05-17T12:14:54.149Z,12.70
2023-05-17T12:17:25.867Z,12.70
2023-05-17T12:19:55.567Z,12.70
2023-05-17T12:22:23.592Z,12.70
2023-05-17T12:24:51.627Z,12.80
2023-05-17T12:27:26.043Z,12.80
2023-05-17T12:29:54.191Z,12.80
2023-05-17T12:32:22.330Z,12.90
2023-05-17T12:34:50.446Z,12.80
2023-05-17T12:37:19.722Z,12.90
2023-05-17T12:39:48.247Z,12.80
2023-05-17T12:42:16.311Z,12.70
2023-05-17T12:44:44.251Z,12.70
2023-05-17T12:47:12.376Z,12.60
2023-05-17T12:49:41.008Z,12.50
2023-05-17T12:52:09.040Z,12.50
2023-05-17T12:54:40.581Z,12.40
2023-05-17T12:57:13.914Z,12.40
2023-05-17T12:59:48.780Z,12.20
2023-05-17T13:02:17.272Z,12.20
2023-05-17T13:04:46.452Z,12.10
2023-05-17T13:07:21.847Z,12.10
2023-05-17T13:09:51.191Z,12.10
2023-05-17T13:12:20.548Z,12.10
2023-05-17T13:14:48.998Z,12.10
2023-05-17T13:17:19.003Z,12.10
2023-05-17T13:19:47.105Z,12.30
2023-05-17T13:22:15.449Z,12.30
2023-05-17T13:24:44.179Z,12.30
2023-05-17T13:27:13.720Z,12.40
2023-05-17T13:29:42.487Z,12.40
2023-05-17T13:32:11.491Z,12.40
2023-05-17T13:34:40.092Z,12.40
2023-05-17T13:37:11.674Z,12.40
2023-05-17T13:39:40.881Z,12.40
2023-05-17T13:42:09.689Z,12.30
2023-05-17T13:44:39.345Z,12.30
2023-05-17T13:47:07.502Z,12.20
2023-05-17T13:49:36.123Z,12.10
2023-05-17T13:52:08.882Z,12.00
2023-05-17T13:54:37.106Z,11.90
2023-05-17T13:57:05.576Z,11.90
2023-05-17T13:59:33.483Z,11.90
2023-05-17T14:02:04.227Z,11.90
2023-05-17T14:04:32.149Z,11.90
2023-05-17T14:07:00.067Z,11.90
2023-05-17T14:09:30.601Z,11.90
2023-05-17T14:12:00.933Z,11.80
2023-05-17T14:14:29.256Z,11.80
2023-05-17T14:16:57.706Z,11.70
2023-05-17T14:19:27.084Z,11.60
2023-05-17T14:21:55.065Z,11.60
2023-05-17T14:24:23.056Z,11.70
2023-05-17T14:26:51.220Z,11.60
2023-05-17T14:29:19.164Z,11.60
2023-05-17T14:31:47.054Z,11.60
2023-05-17T14:34:14.970Z,11.70
2023-05-17T14:36:44.333Z,11.60
2023-05-17T14:39:12.233Z,11.60
2023-05-17T14:41:41.180Z,11.60
2023-05-17T14:44:10.005Z,11.50
2023-05-17T14:46:37.938Z,11.40
2023-05-17T14:49:06.922Z,11.40
2023-05-17T14:51:34.903Z,11.40
2023-05-17T14:54:04.521Z,11.30
2023-05-17T14:56:32.412Z,11.30
2023-05-17T14:59:00.634Z,11.30
2023-05-17T15:01:29.111Z,11.20
2023-05-17T15:03:57.202Z,11.10
2023-05-17T15:06:25.651Z,11.10
2023-05-17T15:08:54.461Z,11.00
2023-05-17T15:11:23.884Z,11.00
2023-05-17T15:13:51.810Z,11.00
2023-05-17T15:16:19.845Z,10.90
2023-05-17T15:18:48.360Z,10.90
2023-05-17T15:21:17.668Z,10.90
2023-05-17T15:23:46.017Z,10.90
2023-05-17T15:26:13.933Z,10.90
2023-05-17T15:28:43.591Z,10.80
2023-05-17T15:31:11.656Z,10.80
2023-05-17T15:33:40.377Z,10.90
2023-05-17T15:36:09.004Z,10.90
2023-05-17T15:38:37.718Z,10.90
2023-05-17T15:41:07.549Z,10.90
2023-05-17T15:43:35.918Z,10.90
2023-05-17T15:46:05.227Z,10.90
2023-05-17T15:48:34.403Z,11.00
2023-05-17T15:51:02.695Z,11.00
2023-05-17T15:53:34.389Z,11.00
2023-05-17T15:56:02.752Z,11.00
2023-05-17T15:58:33.211Z,11.00
2023-05-17T16:01:03.795Z,11.00
2023-05-17T16:03:33.102Z,11.00
2023-05-17T16:06:01.196Z,11.00
2023-05-17T16:08:29.211Z,10.90
2023-05-17T16:10:57.125Z,11.00
2023-05-17T16:13:25.096Z,10.90
2023-05-17T16:15:53.322Z,10.90
2023-05-17T16:18:21.304Z,10.90
2023-05-17T16:20:57.741Z,10.90
2023-05-17T16:23:25.650Z,10.90
2023-05-17T16:25:54.514Z,10.80
2023-05-17T16:28:22.673Z,10.70
2023-05-17T16:30:50.694Z,10.70
2023-05-17T16:33:20.297Z,10.60
2023-05-17T16:35:50.296Z,10.50
2023-05-17T16:38:18.181Z,10.50
2023-05-17T16:40:46.732Z,10.40
2023-05-17T16:43:16.158Z,10.30
2023-05-17T16:45:44.922Z,10.30
2023-05-17T16:48:13.424Z,10.20
2023-05-17T16:50:41.459Z,10.20
2023-05-17T16:53:10.777Z,10.10
2023-05-17T16:55:38.714Z,10.10
2023-05-17T16:58:06.640Z,10.10
2023-05-17T17:00:34.889Z,10.10
2023-05-17T17:03:02.858Z,10.00
2023-05-17T17:05:31.007Z,10.00
2023-05-17T17:07:58.895Z,10.00
2023-05-17T17:10:28.390Z,9.90
2023-05-17T17:12:56.619Z,9.80
2023-05-17T17:15:24.692Z,9.80
2023-05-17T17:17:52.741Z,9.70
2023-05-17T17:20:20.866Z,9.60
2023-05-17T17:22:48.767Z,9.50
2023-05-17T17:25:16.663Z,9.40
2023-05-17T17:27:45.991Z,9.30
2023-05-17T17:30:14.069Z,9.30
2023-05-17T17:32:42.097Z,9.20
2023-05-17T17:35:10.588Z,9.20
2023-05-17T17:37:38.468Z,9.10
2023-05-17T17:40:07.341Z,9.10
2023-05-17T17:42:35.368Z,9.00
2023-05-17T17:45:05.013Z,9.00
2023-05-17T17:47:33.022Z,8.90
2023-05-17T17:50:01.125Z,8.90
2023-05-17T17:52:29.072Z,8.80
2023-05-17T17:54:57.506Z,8.80
2023-05-17T17:57:25.761Z,8.70
2023-05-17T17:59:53.827Z,8.70
2023-05-17T18:02:23.234Z,8.60
2023-05-17T18:04:51.416Z,8.60
2023-05-17T18:07:20.170Z,8.60
2023-05-17T18:09:48.061Z,8.50
2023-05-17T18:12:16.032Z,8.50
2023-05-17T18:14:44.140Z,8.50
2023-05-17T18:17:12.155Z,8.40
2023-05-17T18:19:41.549Z,8.40
2023-05-17T18:22:09.492Z,8.40
2023-05-17T18:24:37.387Z,8.30
2023-05-17T18:27:05.527Z,8.30
2023-05-17T18:29:33.524Z,8.30
2023-05-17T18:32:01.949Z,8.30
2023-05-17T18:34:29.854Z,8.20
2023-05-17T18:36:59.144Z,8.20
2023-05-17T18:39:27.216Z,8.20
2023-05-17T18:41:55.156Z,8.10
2023-05-17T18:44:23.118Z,8.10
2023-05-17T18:46:51.120Z,8.00
2023-05-17T18:49:19.168Z,8.10
2023-05-17T18:51:47.024Z,8.10
2023-05-17T18:54:16.236Z,8.10
2023-05-17T18:56:44.279Z,8.10
2023-05-17T18:59:12.171Z,8.10
2023-05-17T19:01:40.088Z,8.10
2023-05-17T19:04:08.123Z,8.10
2023-05-17T19:06:36.076Z,8.00
2023-05-17T19:09:04.019Z,8.00
2023-05-17T19:11:33.268Z,8.00
2023-05-17T19:14:01.187Z,8.00
2023-05-17T19:16:29.027Z,8.00
2023-05-17T19:18:56.917Z,8.00
2023-05-17T19:21:24.833Z,8.00
2023-05-17T19:23:52.774Z,8.00
2023-05-17T19:26:21.639Z,8.00
2023-05-17T19:28:50.995Z,8.00
2023-05-17T19:31:19.011Z,7.90
2023-05-17T19:33:46.886Z,7.90
2023-05-17T19:36:14.839Z,7.90
2023-05-17T19:38:42.704Z,7.90
2023-05-17T19:41:10.699Z,7.90
2023-05-17T19:43:38.587Z,7.90
2023-05-17T19:46:10.610Z,7.90
2023-05-17T19:48:39.463Z,7.80
2023-05-17T19:51:07.484Z,7.80
2023-05-17T19:53:50.857Z,7.80
2023-05-17T19:56:21.341Z,7.80
2023-05-17T19:58:49.268Z,7.80
2023-05-17T20:01:18.691Z,7.80
2023-05-17T20:03:46.731Z,7.80
2023-05-17T20:06:15.133Z,7.80
2023-05-17T20:08:43.472Z,7.70
2023-05-17T20:11:11.384Z,7.80
2023-05-17T20:13:40.453Z,7.70
2023-05-17T20:16:12.693Z,7.80
2023-05-17T20:18:43.173Z,7.70
2023-05-17T20:21:12.620Z,7.70
2023-05-17T20:23:41.019Z,7.70
2023-05-17T20:26:15.924Z,7.70
2023-05-17T20:28:43.868Z,7.70
2023-05-17T20:31:12.057Z,7.70
2023-05-17T20:33:40.018Z,7.70
2023-05-17T20:36:10.946Z,7.70
2023-05-17T20:38:38.878Z,7.70
2023-05-17T20:41:07.581Z,7.80
2023-05-17T20:43:36.784Z,7.70
2023-05-17T20:46:06.983Z,7.80
2023-05-17T20:48:35.258Z,7.80
2023-05-17T20:51:03.691Z,7.70
2023-05-17T20:53:33.059Z,7.70
2023-05-17T20:56:01.017Z,7.70
2023-05-17T20:58:29.675Z,7.70
2023-05-17T21:00:57.731Z,7.70
2023-05-17T21:03:28.510Z,7.70
2023-05-17T21:05:56.716Z,7.70
2023-05-17T21:08:24.598Z,7.70
2023-05-17T21:10:53.859Z,7.70
2023-05-17T21:13:23.388Z,7.70
2023-05-17T21:15:51.281Z,7.60
2023-05-17T21:18:19.234Z,7.60
2023-05-17T21:20:47.134Z,7.60
2023-05-17T21:23:15.124Z,7.60
2023-05-17T21:25:44.293Z,7.60
2023-05-17T21:28:13.616Z,7.60
2023-05-17T21:30:41.527Z,7.50
2023-05-17T21:33:09.512Z,7.50
2023-05-17T21:35:37.438Z,7.60
2023-05-17T21:38:05.278Z,7.50
2023-05-17T21:40:33.461Z,7.50
2023-05-17T21:43:01.630Z,7.50
2023-05-17T21:45:31.063Z,7.50
2023-05-17T21:47:59.041Z,7.50
2023-05-17T21:50:26.993Z,7.50
2023-05-17T21:52:54.871Z,7.50
2023-05-17T21:55:22.867Z,7.50
2023-05-17T21:57:50.758Z,7.50
2023-05-17T22:00:20.152Z,7.40
2023-05-17T22:02:49.504Z,7.40
2023-05-17T22:05:17.447Z,7.40
2023-05-17T22:07:45.306Z,7.40
2023-05-17T22:10:13.329Z,7.40
2023-05-17T22:12:41.878Z,7.40
2023-05-17T22:15:10.982Z,7.40
2023-05-17T22:17:51.005Z,7.30
2023-05-17T22:20:23.545Z,7.40
2023-05-17T22:22:51.778Z,7.30
2023-05-17T22:25:19.673Z,7.30
2023-05-17T22:27:47.860Z,7.30
2023-05-17T22:30:16.051Z,7.30
2023-05-17T22:32:44.442Z,7.30
2023-05-17T22:35:12.390Z,7.30
2023-05-17T22:37:42.734Z,7.30
2023-05-17T22:40:11.838Z,7.30
2023-05-17T22:42:39.831Z,7.30
2023-05-17T22:45:08.082Z,7.30
2023-05-17T22:47:36.688Z,7.30
2023-05-17T22:50:04.974Z,7.30
2023-05-17T22:52:32.979Z,7.30
2023-05-17T22:55:02.472Z,7.30
2023-05-17T22:57:30.381Z,7.30
2023-05-17T22:59:58.274Z,7.20
2023-05-17T23:02:26.240Z,7.30
2023-05-17T23:04:55.703Z,7.30
2023-05-17T23:07:23.656Z,7.30
2023-05-17T23:09:53.745Z,7.30
2023-05-17T23:12:27.501Z,7.20
2023-05-17T23:14:57.830Z,7.20
2023-05-17T23:17:26.549Z,7.20
2023-05-17T23:19:54.509Z,7.20
2023-05-17T23:22:22.398Z,7.30
2023-05-17T23:24:50.288Z,7.20
2023-05-17T23:27:18.453Z,7.20
2023-05-17T23:29:47.736Z,7.20
2023-05-17T23:32:15.592Z,7.20
2023-05-17T23:34:45.459Z,7.20
2023-05-17T23:37:13.345Z,7.20
2023-05-17T23:39:41.341Z,7.20
2023-05-17T23:42:10.912Z,7.20
2023-05-17T23:44:41.960Z,7.20
2023-05-17T23:47:12.291Z,7.20
2023-05-17T23:49:40.305Z,7.20
2023-05-17T23:52:11.186Z,7.20
2023-05-17T23:54:39.619Z,7.20
2023-05-17T23:57:07.783Z,7.20
2023-05-17T23:59:36.543Z,7.10
